createdAt,value
2023-05-16T00:02:25.912Z,102001.84
2023-05-16T00:04:58.871Z,102001.31
2023-05-16T00:07:33.743Z,102002.22
2023-05-16T00:10:07.833Z,102006.91
2023-05-16T00:12:41.752Z,102003.69
2023-05-16T00:15:14.613Z,102008.75
2023-05-16T00:17:47.508Z,102002.22
2023-05-16T00:20:23.566Z,102002.09
2023-05-16T00:23:00.991Z,101999.63
2023-05-16T00:25:33.914Z,101998.56
2023-05-16T00:28:06.728Z,102003.25
2023-05-16T00:30:39.686Z,102003.41
2023-05-16T00:33:12.497Z,102012.00
2023-05-16T00:35:45.393Z,102009.78
2023-05-16T00:38:21.001Z,102015.06
2023-05-16T00:40:55.195Z,102009.47
2023-05-16T00:43:28.129Z,102003.41
2023-05-16T00:46:01.991Z,102008.44
2023-05-16T00:48:35.263Z,102002.16
2023-05-16T00:51:09.520Z,102007.19
2023-05-16T00:53:44.238Z,102005.22
2023-05-16T00:56:18.668Z,102006.28
2023-05-16T00:58:52.486Z,102010.63
2023-05-16T01:01:27.562Z,102007.88
2023-05-16T01:04:04.449Z,102008.13
2023-05-16T01:06:37.665Z,102013.59
2023-05-16T01:09:14.742Z,102006.28
2023-05-16T01:11:54.869Z,102006.28
2023-05-16T01:14:39.876Z,101993.78
2023-05-16T01:17:21.782Z,102002.28
2023-05-16T01:20:12.196Z,101997.47
2023-05-16T01:23:00.204Z,102007.75
2023-05-16T01:25:46.938Z,102003.06
2023-05-16T01:28:21.566Z,102007.09
2023-05-16T01:30:56.059Z,101996.47
2023-05-16T01:33:29.317Z,102003.34
2023-05-16T01:36:05.160Z,102004.81
2023-05-16T01:38:43.449Z,102009.06
2023-05-16T01:41:22.546Z,102009.06
2023-05-16T01:44:02.571Z,102015.25
2023-05-16T01:46:41.936Z,102017.19
2023-05-16T01:49:21.138Z,102012.81
2023-05-16T01:52:01.296Z,102010.44
2023-05-16T01:54:37.271Z,102013.84
2023-05-16T01:57:11.179Z,102012.50
2023-05-16T02:05:48.024Z,102024.41
2023-05-16T02:11:22.315Z,102021.69
2023-05-16T02:13:55.226Z,102015.94
2023-05-16T02:16:28.237Z,102019.38
2023-05-16T02:19:01.177Z,102017.31
2023-05-16T02:21:35.438Z,102022.13
2023-05-16T02:24:08.411Z,102021.19
2023-05-16T02:26:41.176Z,102026.69
2023-05-16T02:29:15.091Z,102020.41
2023-05-16T02:31:48.581Z,102029.06
2023-05-16T02:37:16.256Z,102032.66
2023-05-16T02:39:50.512Z,102028.19
2023-05-16T02:42:25.595Z,102029.34
2023-05-16T02:45:00.263Z,102026.94
2023-05-16T02:47:33.378Z,102024.19
2023-05-16T02:50:07.675Z,102021.78
2023-05-16T02:52:42.411Z,102031.28
2023-05-16T02:57:51.873Z,102036.66
2023-05-16T03:00:25.045Z,102034.94
2023-05-16T03:02:58.195Z,102033.44
2023-05-16T03:05:32.203Z,102033.31
2023-05-16T03:14:22.948Z,102043.63
2023-05-16T03:16:55.744Z,102040.44
2023-05-16T03:19:28.478Z,102044.31
2023-05-16T03:22:01.187Z,102051.63
2023-05-16T03:24:34.205Z,102049.78
2023-05-16T03:27:06.950Z,102050.94
2023-05-16T03:29:41.922Z,102055.41
2023-05-16T03:32:14.900Z,102046.59
2023-05-16T03:34:48.077Z,102056.44
2023-05-16T03:37:20.807Z,102059.19
2023-05-16T03:39:53.861Z,102058.84
2023-05-16T03:42:26.469Z,102052.31
2023-05-16T03:45:01.099Z,102055.75
2023-05-16T03:47:34.098Z,102061.91
2023-05-16T03:50:08.525Z,102061.69
2023-05-16T03:52:41.454Z,102060.91
2023-05-16T03:55:15.381Z,102059.75
2023-05-16T03:57:50.070Z,102061.69
2023-05-16T04:00:24.696Z,102061.59
2023-05-16T04:02:57.820Z,102061.59
2023-05-16T04:05:31.515Z,102062.50
2023-05-16T04:08:04.756Z,102062.41
2023-05-16T04:10:40.187Z,102069.47
2023-05-16T04:13:13.101Z,102065.00
2023-05-16T04:15:47.985Z,102063.06
2023-05-16T04:18:20.871Z,102065.59
2023-05-16T04:20:55.209Z,102071.53
2023-05-16T04:23:28.199Z,102071.75
2023-05-16T04:26:02.010Z,102066.97
2023-05-16T04:28:35.137Z,102074.03
2023-05-16T04:31:09.435Z,102078.16
2023-05-16T04:33:42.253Z,102078.97
2023-05-16T04:36:15.236Z,102081.63
2023-05-16T04:38:47.968Z,102077.25
2023-05-16T04:41:20.700Z,102089.03
2023-05-16T04:43:56.550Z,102087.31
2023-05-16T04:46:30.826Z,102078.88
2023-05-16T04:49:03.815Z,102086.63
2023-05-16T04:51:36.750Z,102091.44
2023-05-16T04:54:10.976Z,102089.84
2023-05-16T04:56:44.131Z,102090.06
2023-05-16T04:59:16.893Z,102103.88
2023-05-16T05:01:51.176Z,102105.38
2023-05-16T05:04:24.590Z,102106.53
2023-05-16T05:06:57.918Z,102107.78
2023-05-16T05:09:30.831Z,102111.81
2023-05-16T05:12:03.407Z,102111.00
2023-05-16T05:14:36.311Z,102107.91
2023-05-16T05:17:10.457Z,102110.31
2023-05-16T05:19:43.329Z,102110.41
2023-05-16T05:22:16.310Z,102110.41
2023-05-16T05:24:49.430Z,102117.28
2023-05-16T05:27:22.076Z,102112.28
2023-05-16T05:29:55.040Z,102121.63
2023-05-16T05:32:29.169Z,102125.75
2023-05-16T05:35:01.938Z,102123.56
2023-05-16T05:37:34.762Z,102123.69
2023-05-16T05:40:08.903Z,102124.72
2023-05-16T05:42:46.769Z,102130.78
2023-05-16T05:45:20.038Z,102133.28
2023-05-16T05:47:54.877Z,102136.50
2023-05-16T05:50:27.929Z,102139.94
2023-05-16T05:53:01.137Z,102149.09
2023-05-16T05:55:34.054Z,102135.81
2023-05-16T05:58:07.414Z,102142.47
2023-05-16T06:00:40.480Z,102148.41
2023-05-16T06:03:17.122Z,102146.81
2023-05-16T06:05:50.418Z,102148.84
2023-05-16T06:08:23.506Z,102155.03
2023-05-16T06:10:56.641Z,102150.69
2023-05-16T06:13:30.872Z,102150.44
2023-05-16T06:16:08.864Z,102160.06
2023-05-16T06:18:44.316Z,102150.66
2023-05-16T06:21:17.501Z,102156.88
2023-05-16T06:23:50.706Z,102158.56
2023-05-16T06:26:24.610Z,102157.88
2023-05-16T06:28:57.420Z,102158.78
2023-05-16T06:31:31.237Z,102166.44
2023-05-16T06:34:05.394Z,102161.63
2023-05-16T06:36:38.176Z,102179.47
2023-05-16T06:39:11.142Z,102171.66
2023-05-16T06:41:43.806Z,102172.09
2023-05-16T06:44:21.814Z,102180.66
2023-05-16T06:46:54.597Z,102173.25
2023-05-16T06:49:29.092Z,102182.31
2023-05-16T06:52:02.200Z,102176.63
2023-05-16T06:54:35.561Z,102183.06
2023-05-16T06:57:08.776Z,102184.56
2023-05-16T06:59:44.423Z,102181.91
2023-05-16T07:02:17.253Z,102185.66
2023-05-16T07:04:51.569Z,102189.75
2023-05-16T07:07:27.062Z,102187.94
2023-05-16T07:10:00.168Z,102185.88
2023-05-16T07:12:33.448Z,102194.78
2023-05-16T07:15:07.678Z,102188.53
2023-05-16T07:17:40.760Z,102184.69
2023-05-16T07:20:15.015Z,102194.75
2023-05-16T07:22:47.832Z,102200.09
2023-05-16T07:25:20.776Z,102202.13
2023-05-16T07:27:55.176Z,102203.19
2023-05-16T07:30:28.436Z,102204.00
2023-05-16T07:33:01.205Z,102200.44
2023-05-16T07:35:35.504Z,102202.97
2023-05-16T07:38:08.383Z,102195.78
2023-05-16T07:40:41.113Z,102200.09
2023-05-16T07:43:14.150Z,102203.66
2023-05-16T07:45:47.265Z,102208.59
2023-05-16T07:48:20.162Z,102196.94
2023-05-16T07:50:55.835Z,102205.19
2023-05-16T07:53:28.678Z,102202.56
2023-05-16T07:56:01.611Z,102212.03
2023-05-16T07:58:34.478Z,102206.94
2023-05-16T08:01:07.408Z,102220.81
2023-05-16T08:03:40.151Z,102209.94
2023-05-16T08:06:16.230Z,102213.44
2023-05-16T08:08:49.161Z,102216.38
2023-05-16T08:11:22.664Z,102215.28
2023-05-16T08:13:55.384Z,102219.31
2023-05-16T08:16:28.387Z,102220.47
2023-05-16T08:19:01.291Z,102222.56
2023-05-16T08:21:35.832Z,102234.59
2023-05-16T08:24:11.201Z,102227.97
2023-05-16T08:26:51.459Z,102220.13
2023-05-16T08:29:32.716Z,102231.59
2023-05-16T08:32:07.009Z,102240.44
2023-05-16T08:34:39.995Z,102240.63
2023-05-16T08:37:16.609Z,102246.16
2023-05-16T08:39:50.284Z,102239.88
2023-05-16T08:42:23.241Z,102238.31
2023-05-16T08:44:56.071Z,102243.78
2023-05-16T08:47:34.019Z,102231.59
2023-05-16T08:50:10.529Z,102234.16
2023-05-16T08:52:47.876Z,102235.09
2023-05-16T08:55:22.284Z,102237.34
2023-05-16T08:57:55.896Z,102240.66
2023-05-16T09:00:29.844Z,102238.06
2023-05-16T09:03:04.124Z,102238.94
2023-05-16T09:05:37.287Z,102234.63
2023-05-16T09:08:11.928Z,102238.28
2023-05-16T09:10:44.949Z,102249.06
2023-05-16T09:13:17.987Z,102246.31
2023-05-16T09:16:14.747Z,102253.44
2023-05-16T09:18:58.291Z,102252.22
2023-05-16T09:21:32.441Z,102259.41
2023-05-16T09:24:08.797Z,102250.66
2023-05-16T09:26:41.615Z,102258.19
2023-05-16T09:29:15.451Z,102260.19
2023-05-16T09:31:50.951Z,102259.00
2023-05-16T09:34:24.030Z,102259.41
2023-05-16T09:36:56.776Z,102250.25
2023-05-16T09:39:30.998Z,102263.75
2023-05-16T09:42:06.413Z,102263.34
2023-05-16T09:44:39.541Z,102264.13
2023-05-16T09:47:16.052Z,102271.97
2023-05-16T09:49:53.500Z,102268.00
2023-05-16T09:52:28.545Z,102264.78
2023-05-16T09:55:06.841Z,102270.31
2023-05-16T09:57:40.894Z,102266.66
2023-05-16T10:00:16.925Z,102267.81
2023-05-16T10:02:54.662Z,102260.53
2023-05-16T10:05:29.086Z,102264.50
2023-05-16T10:08:04.088Z,102273.19
2023-05-16T10:10:39.668Z,102260.38
2023-05-16T10:13:13.907Z,102262.59
2023-05-16T10:15:50.780Z,102262.66
2023-05-16T10:18:26.442Z,102262.50
2023-05-16T10:21:04.152Z,102271.25
2023-05-16T10:23:39.351Z,102267.16
2023-05-16T10:26:17.317Z,102265.81
2023-05-16T10:28:54.391Z,102269.69
2023-05-16T10:31:27.723Z,102270.22
2023-05-16T10:34:01.390Z,102266.66
2023-05-16T10:36:38.363Z,102257.38
2023-05-16T10:39:15.312Z,102263.22
2023-05-16T10:41:50.138Z,102263.91
2023-05-16T10:44:23.051Z,102250.75
2023-05-16T10:46:59.909Z,102247.84
2023-05-16T10:49:33.173Z,102251.38
2023-05-16T10:52:09.453Z,102259.81
2023-05-16T10:54:43.462Z,102259.69
2023-05-16T10:57:20.995Z,102258.34
2023-05-16T10:59:56.647Z,102267.63
2023-05-16T11:02:33.863Z,102252.44
2023-05-16T11:05:09.580Z,102264.38
2023-05-16T11:07:42.997Z,102258.34
2023-05-16T11:10:17.664Z,102252.59
2023-05-16T11:12:55.210Z,102257.50
2023-05-16T11:15:32.458Z,102256.06
2023-05-16T11:18:07.825Z,102250.97
2023-05-16T11:20:41.509Z,102248.34
2023-05-16T11:23:27.548Z,102262.63
2023-05-16T11:26:01.408Z,102254.13
2023-05-16T11:28:35.895Z,102254.22
2023-05-16T11:31:10.326Z,102260.38
2023-05-16T11:33:43.360Z,102259.69
2023-05-16T11:36:16.804Z,102261.66
2023-05-16T11:38:50.385Z,102268.09
2023-05-16T11:41:24.518Z,102267.44
2023-05-16T11:43:58.779Z,102268.44
2023-05-16T11:46:31.808Z,102269.03
2023-05-16T11:49:05.216Z,102269.72
2023-05-16T11:51:39.511Z,102264.78
2023-05-16T11:54:13.025Z,102269.22
2023-05-16T11:56:48.394Z,102260.94
2023-05-16T11:59:23.065Z,102272.47
2023-05-16T12:01:55.957Z,102264.16
2023-05-16T12:04:29.304Z,102266.56
2023-05-16T12:07:02.931Z,102267.34
2023-05-16T12:09:38.888Z,102268.13
2023-05-16T12:12:12.254Z,102269.25
2023-05-16T12:14:46.786Z,102270.13
2023-05-16T12:17:22.309Z,102269.78
2023-05-16T12:19:58.129Z,102259.25
2023-05-16T12:22:31.428Z,102265.44
2023-05-16T12:25:22.703Z,102271.16
2023-05-16T12:27:56.494Z,102272.06
2023-05-16T12:30:35.654Z,102269.72
2023-05-16T12:33:11.159Z,102268.22
2023-05-16T12:35:45.712Z,102265.56
2023-05-16T12:38:20.243Z,102268.16
2023-05-16T12:40:59.521Z,102271.56
2023-05-16T12:43:32.593Z,102266.34
2023-05-16T12:46:12.646Z,102266.72
2023-05-16T12:48:47.269Z,102271.88
2023-05-16T12:51:21.106Z,102269.91
2023-05-16T12:54:08.966Z,102273.53
2023-05-16T12:56:46.227Z,102273.56
2023-05-16T12:59:20.036Z,102274.59
2023-05-16T13:01:54.348Z,102275.75
2023-05-16T13:04:27.186Z,102283.03
2023-05-16T13:07:00.145Z,102272.69
2023-05-16T13:09:33.264Z,102274.72
2023-05-16T13:12:07.456Z,102274.72
2023-05-16T13:14:42.445Z,102282.06
2023-05-16T13:17:18.038Z,102275.31
2023-05-16T13:19:51.503Z,102275.09
2023-05-16T13:22:24.623Z,102280.50
2023-05-16T13:24:57.470Z,102278.44
2023-05-16T13:27:30.190Z,102275.75
2023-05-16T13:30:04.156Z,102273.41
2023-05-16T13:32:38.554Z,102271.94
2023-05-16T13:35:11.409Z,102279.03
2023-05-16T13:37:44.464Z,102275.75
2023-05-16T13:40:17.471Z,102273.19
2023-05-16T13:42:51.702Z,102274.97
2023-05-16T13:45:24.898Z,102281.06
2023-05-16T13:47:59.475Z,102283.09
2023-05-16T13:50:33.801Z,102284.44
2023-05-16T13:53:07.683Z,102283.88
2023-05-16T13:55:40.594Z,102281.63
2023-05-16T13:58:13.779Z,102276.78
2023-05-16T14:00:47.733Z,102277.78
2023-05-16T14:03:23.313Z,102284.53
2023-05-16T14:05:56.277Z,102277.38
2023-05-16T14:08:29.227Z,102279.41
2023-05-16T14:11:02.024Z,102276.78
2023-05-16T14:13:34.673Z,102279.69
2023-05-16T14:16:07.820Z,102289.28
2023-05-16T14:18:41.957Z,102273.59
2023-05-16T14:21:14.898Z,102279.38
2023-05-16T14:23:48.289Z,102276.47
2023-05-16T14:26:22.749Z,102280.03
2023-05-16T14:28:57.203Z,102275.88
2023-05-16T14:31:30.452Z,102277.22
2023-05-16T14:34:05.242Z,102273.72
2023-05-16T14:36:38.119Z,102267.31
2023-05-16T14:39:12.176Z,102276.41
2023-05-16T14:41:45.019Z,102275.75
2023-05-16T14:44:18.351Z,102269.88
2023-05-16T14:46:52.138Z,102282.34
2023-05-16T14:49:27.081Z,102281.56
2023-05-16T14:52:00.151Z,102280.78
2023-05-16T14:54:33.152Z,102277.97
2023-05-16T14:57:07.395Z,102282.94
2023-05-16T14:59:40.309Z,102279.13
2023-05-16T15:02:13.524Z,102283.66
2023-05-16T15:04:49.080Z,102281.56
2023-05-16T15:07:22.302Z,102291.22
2023-05-16T15:09:55.228Z,102290.31
2023-05-16T15:12:28.088Z,102298.06
2023-05-16T15:15:01.098Z,102297.94
2023-05-16T15:17:33.998Z,102287.19
2023-05-16T15:20:11.049Z,102293.91
2023-05-16T15:22:44.074Z,102286.13
2023-05-16T15:25:16.939Z,102293.72
2023-05-16T15:27:49.727Z,102295.78
2023-05-16T15:30:38.442Z,102299.81
2023-05-16T15:33:11.558Z,102292.25
2023-05-16T15:35:48.458Z,102302.00
2023-05-16T15:38:21.893Z,102298.44
2023-05-16T15:41:09.655Z,102311.84
2023-05-16T15:43:47.855Z,102313.50
2023-05-16T15:46:21.423Z,102320.25
2023-05-16T15:48:54.413Z,102314.56
2023-05-16T15:51:28.757Z,102316.19
2023-05-16T15:54:01.703Z,102317.28
2023-05-16T15:56:34.611Z,102316.75
2023-05-16T15:59:12.149Z,102318.06
2023-05-16T16:01:48.354Z,102319.06
2023-05-16T16:04:23.346Z,102322.97
2023-05-16T16:06:58.243Z,102319.06
2023-05-16T16:09:31.187Z,102324.00
2023-05-16T16:12:04.178Z,102325.78
2023-05-16T16:14:37.030Z,102319.13
2023-05-16T16:17:09.711Z,102325.63
2023-05-16T16:19:42.826Z,102317.44
2023-05-16T16:22:17.066Z,102317.44
2023-05-16T16:24:49.938Z,102321.94
2023-05-16T16:27:22.611Z,102323.25
2023-05-16T16:29:55.488Z,102324.16
2023-05-16T16:32:28.172Z,102325.72
2023-05-16T16:35:01.765Z,102319.06
2023-05-16T16:37:36.816Z,102324.31
2023-05-16T16:40:10.938Z,102319.56
2023-05-16T16:42:43.901Z,102318.00
2023-05-16T16:45:16.782Z,102310.91
2023-05-16T16:47:49.677Z,102317.28
2023-05-16T16:50:22.897Z,102314.88
2023-05-16T16:52:59.231Z,102316.13
2023-05-16T16:55:32.167Z,102320.47
2023-05-16T16:58:05.060Z,102323.72
2023-05-16T17:00:38.822Z,102329.69
2023-05-16T17:03:11.867Z,102327.69
2023-05-16T17:05:45.170Z,102327.69
2023-05-16T17:08:19.913Z,102334.03
2023-05-16T17:10:53.266Z,102337.22
2023-05-16T17:13:26.685Z,102334.44
2023-05-16T17:15:59.776Z,102341.19
2023-05-16T17:18:34.817Z,102336.03
2023-05-16T17:21:09.352Z,102336.06
2023-05-16T17:23:44.406Z,102344.41
2023-05-16T17:26:17.783Z,102348.81
2023-05-16T17:28:53.802Z,102348.41
2023-05-16T17:31:26.797Z,102351.63
2023-05-16T17:33:59.878Z,102350.03
2023-05-16T17:36:32.995Z,102356.41
2023-05-16T17:39:08.345Z,102358.41
2023-05-16T17:41:41.452Z,102357.22
2023-05-16T17:44:14.455Z,102350.88
2023-05-16T17:46:47.408Z,102360.41
2023-05-16T17:49:21.703Z,102354.06
2023-05-16T17:51:56.466Z,102366.81
2023-05-16T17:54:32.220Z,102367.56
2023-05-16T17:57:06.906Z,102356.03
2023-05-16T17:59:40.464Z,102362.78
2023-05-16T18:02:15.559Z,102359.97
2023-05-16T18:04:48.660Z,102360.78
2023-05-16T18:07:21.559Z,102359.59
2023-05-16T18:09:55.644Z,102363.53
2023-05-16T18:12:28.788Z,102353.63
2023-05-16T18:15:02.065Z,102359.97
2023-05-16T18:17:35.659Z,102359.53
2023-05-16T18:20:12.287Z,102366.69
2023-05-16T18:22:50.583Z,102369.84
2023-05-16T18:25:26.354Z,102371.34
2023-05-16T18:27:59.492Z,102371.34
2023-05-16T18:30:32.200Z,102378.06
2023-05-16T18:33:06.547Z,102372.47
2023-05-16T18:35:39.880Z,102379.22
2023-05-16T18:38:28.278Z,102379.19
2023-05-16T18:41:07.378Z,102387.91
2023-05-16T18:43:40.367Z,102391.00
2023-05-16T19:05:09.660Z,102396.22
2023-05-16T19:07:42.836Z,102400.94
2023-05-16T19:10:15.650Z,102404.03
2023-05-16T19:12:49.200Z,102409.13
2023-05-16T19:15:22.135Z,102403.63
2023-05-16T19:17:55.193Z,102404.72
2023-05-16T19:20:29.929Z,102401.53
2023-05-16T19:23:03.579Z,102399.88
2023-05-16T19:25:47.194Z,102407.72
2023-05-16T19:28:21.325Z,102410.84
2023-05-16T19:30:54.458Z,102407.25
2023-05-16T19:33:27.453Z,102415.50
2023-05-16T19:36:03.165Z,102416.16
2023-05-16T19:38:36.166Z,102428.03
2023-05-16T19:41:08.789Z,102418.44
2023-05-16T19:49:43.498Z,102436.28
2023-05-16T19:52:17.733Z,102427.59
2023-05-16T19:54:53.949Z,102428.78
2023-05-16T19:57:27.120Z,102431.75
2023-05-16T20:00:00.160Z,102434.81
2023-05-16T20:02:33.233Z,102429.63
2023-05-16T20:05:07.221Z,102431.59
2023-05-16T20:07:41.785Z,102431.13
2023-05-16T20:10:16.631Z,102433.84
2023-05-16T20:12:49.634Z,102439.03
2023-05-16T20:15:22.558Z,102436.47
2023-05-16T20:17:55.700Z,102430.50
2023-05-16T20:20:30.041Z,102445.31
2023-05-16T20:23:04.183Z,102448.91
2023-05-16T20:25:37.479Z,102452.22
2023-05-16T20:28:10.318Z,102444.81
2023-05-16T20:30:43.191Z,102447.47
2023-05-16T20:33:18.468Z,102443.13
2023-05-16T20:35:51.457Z,102450.13
2023-05-16T20:38:25.703Z,102449.72
2023-05-16T20:40:58.664Z,102450.94
2023-05-16T20:43:31.388Z,102454.72
2023-05-16T20:46:04.528Z,102448.19
2023-05-16T20:48:37.450Z,102445.50
2023-05-16T20:51:10.330Z,102445.28
2023-05-16T20:53:44.536Z,102448.06
2023-05-16T20:56:17.496Z,102452.75
2023-05-16T20:58:50.157Z,102454.34
2023-05-16T21:01:26.075Z,102449.41
2023-05-16T21:03:58.970Z,102449.72
2023-05-16T21:06:31.886Z,102450.75
2023-05-16T21:09:06.339Z,102454.84
2023-05-16T21:11:39.346Z,102452.81
2023-05-16T21:14:11.955Z,102453.63
2023-05-16T21:16:44.940Z,102453.09
2023-05-16T21:19:17.745Z,102457.03
2023-05-16T21:21:50.667Z,102460.09
2023-05-16T21:24:24.878Z,102468.38
2023-05-16T21:26:57.831Z,102467.22
2023-05-16T21:29:30.493Z,102465.91
2023-05-16T21:32:03.742Z,102468.44
2023-05-16T21:34:36.635Z,102472.00
2023-05-16T21:37:11.690Z,102471.09
2023-05-16T21:39:45.909Z,102459.56
2023-05-16T21:42:18.719Z,102469.72
2023-05-16T21:44:52.502Z,102468.50
2023-05-16T21:47:26.240Z,102467.31
2023-05-16T21:49:59.253Z,102471.53
2023-05-16T21:52:32.434Z,102478.50
2023-05-16T21:55:07.972Z,102467.00
2023-05-16T21:57:41.037Z,102476.47
2023-05-16T22:00:15.173Z,102474.41
2023-05-16T22:02:48.577Z,102481.84
2023-05-16T22:05:21.576Z,102483.69
2023-05-16T22:07:54.385Z,102484.44
2023-05-16T22:10:28.594Z,102483.53
2023-05-16T22:13:01.388Z,102488.25
2023-05-16T22:15:34.385Z,102493.63
2023-05-16T22:18:09.897Z,102484.97
2023-05-16T22:20:42.771Z,102484.97
2023-05-16T22:23:16.074Z,102481.69
2023-05-16T22:25:50.285Z,102484.66
2023-05-16T22:28:23.124Z,102477.06
2023-05-16T22:30:56.613Z,102476.81
2023-05-16T22:33:31.211Z,102478.31
2023-05-16T22:36:05.006Z,102472.00
2023-05-16T22:38:46.277Z,102471.13
2023-05-16T22:41:23.147Z,102476.63
2023-05-16T22:43:59.277Z,102486.72
2023-05-16T22:46:33.058Z,102490.53
2023-05-16T22:49:08.473Z,102487.06
2023-05-16T22:51:41.490Z,102488.50
2023-05-16T22:54:18.135Z,102495.19
2023-05-16T22:56:52.606Z,102506.22
2023-05-16T22:59:26.586Z,102499.91
2023-05-16T23:02:02.224Z,102498.72
2023-05-16T23:04:35.181Z,102500.59
2023-05-16T23:07:09.429Z,102503.47
2023-05-16T23:09:44.983Z,102494.09
2023-05-16T23:12:21.210Z,102495.69
2023-05-16T23:18:01.819Z,102501.00
2023-05-16T23:20:34.810Z,102507.22
2023-05-16T23:23:07.650Z,102488.91
2023-05-16T23:25:40.469Z,102497.59
2023-05-16T23:28:15.020Z,102491.84
2023-05-16T23:30:47.751Z,102495.91
2023-05-16T23:33:20.512Z,102495.66
2023-05-16T23:35:53.335Z,102490.50
2023-05-16T23:38:27.401Z,102483.38
2023-05-16T23:41:02.492Z,102483.19
2023-05-16T23:43:36.928Z,102481.59
2023-05-16T23:46:09.687Z,102477.56
2023-05-16T23:48:42.522Z,102475.88
2023-05-16T23:51:15.272Z,102476.22
2023-05-16T23:53:48.057Z,102478.28
2023-05-16T23:56:20.772Z,102483.25
2023-05-16T23:58:55.121Z,102484.41
